Time;durP1;ratioP1;P1;durP2;ratioP2;P2;SDS_P1;SDS_P2;PMS_P1;PMS_P2;Temp;Humidity;BMP_temperature;BMP_pressure;BME280_temperature;BME280_humidity;BME280_pressure;Samples;Min_cycle;Max_cycle;Signal;HPM_P1;HPM_P2
2022/09/22 00:01:21;;;;;;;4.97;2.80;;;13.50;69.90;;;13.80;47.55;99391.47;4990693;28;115112;-72
2022/09/22 00:03:53;;;;;;;3.20;2.20;;;13.40;69.90;;;13.76;47.59;99385.75;4987242;28;115187;-72
2022/09/22 00:06:27;;;;;;;2.90;2.30;;;13.40;70.10;;;13.74;47.75;99381.66;4978646;28;124095;-72
2022/09/22 00:09:01;;;;;;;3.10;2.27;;;13.90;70.90;;;13.71;47.85;99380.34;4985757;28;124392;-73
2022/09/22 00:11:30;;;;;;;6.60;2.90;;;13.40;70.50;;;13.67;48.04;99371.84;4956071;28;114152;-72
2022/09/22 00:14:15;;;;;;;4.10;2.40;;;13.40;70.60;;;13.65;47.76;99385.22;4978496;28;114039;-72
2022/09/22 00:16:50;;;;;;;3.60;2.23;;;13.20;70.60;;;13.64;47.96;99382.75;4987195;28;124544;-73
2022/09/22 00:19:23;;;;;;;3.40;2.40;;;13.20;70.80;;;13.60;47.99;99370.66;4957944;28;124042;-72
2022/09/22 00:21:51;;;;;;;3.20;2.23;;;13.20;70.90;;;13.58;48.08;99375.69;4988268;28;114601;-71
2022/09/22 00:24:21;;;;;;;4.93;2.50;;;13.20;71.10;;;13.54;48.21;99367.19;4974546;28;113567;-73
2022/09/22 00:26:48;;;;;;;3.90;2.80;;;13.20;71.20;;;13.53;48.12;99373.06;4980019;28;124062;-72
2022/09/22 00:29:16;;;;;;;8.40;2.37;;;13.20;71.40;;;13.51;48.48;99378.09;4980107;28;125155;-72
2022/09/22 00:31:43;;;;;;;4.50;2.43;;;13.10;71.40;;;13.47;48.66;99372.38;4978801;28;114729;-72
2022/09/22 00:34:18;;;;;;;4.30;2.50;;;13.10;71.60;;;13.45;48.62;99366.31;4992324;28;112755;-72
2022/09/22 00:36:46;;;;;;;3.87;2.33;;;13.10;71.80;;;13.42;48.51;99376.09;4989253;28;123857;-71
2022/09/22 00:39:15;;;;;;;3.10;2.63;;;13.00;71.90;;;13.40;48.75;99360.88;4979428;28;123869;-71
2022/09/22 00:41:47;;;;;;;3.43;2.40;;;13.00;72.20;;;13.36;48.68;99365.44;4980366;28;114777;-71
2022/09/22 00:44:25;;;;;;;5.83;2.30;;;13.00;72.40;;;13.34;48.83;99362.16;4985427;28;114554;-71
2022/09/22 00:47:00;;;;;;;5.17;2.43;;;13.00;72.80;;;13.31;48.95;99357.25;4990180;28;124214;-72
2022/09/22 00:50:05;;;;;;;3.63;2.57;;;12.90;72.80;;;13.26;49.33;99349.88;4988948;28;122686;-72
2022/09/22 00:53:09;;;;;;;3.87;2.33;;;12.90;73.20;;;13.19;49.18;99344.75;4985335;28;115050;-72
2022/09/22 00:55:38;;;;;;;4.67;2.77;;;12.80;73.40;;;13.16;49.36;99345.34;4966444;28;114222;-71
2022/09/22 00:58:10;;;;;;;3.47;2.60;;;12.80;73.50;;;13.15;49.51;99346.50;4980980;28;124536;-71
2022/09/22 01:00:37;;;;;;;2.90;2.27;;;12.80;73.70;;;13.13;49.14;99343.22;4988238;28;123949;-72
2022/09/22 01:03:10;;;;;;;3.73;2.47;;;12.70;73.70;;;13.12;49.28;99349.91;4975640;28;114223;-71
2022/09/22 01:05:41;;;;;;;4.17;3.00;;;12.70;73.70;;;13.10;49.48;99345.81;4981147;28;114126;-71
2022/09/22 01:08:10;;;;;;;4.33;2.37;;;12.70;73.80;;;13.08;49.39;99356.41;4987412;28;124034;-71
2022/09/22 01:10:40;;;;;;;3.87;2.53;;;12.70;74.00;;;13.05;49.89;99341.19;4992309;28;124226;-71
2022/09/22 01:14:05;;;;;;;3.87;2.30;;;12.60;74.00;;;13.02;49.69;99355.72;4985654;28;114228;-71
2022/09/22 01:16:52;;;;;;;3.00;2.33;;;12.60;74.20;;;12.98;49.39;99346.41;4948813;28;113836;-72
2022/09/22 01:19:41;;;;;;;2.70;2.00;;;12.60;74.30;;;12.95;49.71;99352.53;4984089;28;124582;-71
2022/09/22 01:22:48;;;;;;;3.33;2.50;;;12.60;74.50;;;12.91;49.73;99357.09;4990391;28;123858;-71
2022/09/22 01:25:36;;;;;;;5.87;2.60;;;12.50;74.60;;;12.82;49.97;99363.38;4983182;28;114298;-71
2022/09/22 01:28:23;;;;;;;3.83;2.50;;;12.40;74.80;;;12.75;49.98;99356.63;4986511;28;114089;-71
2022/09/22 01:31:25;;;;;;;2.80;2.23;;;12.40;75.00;;;12.70;50.10;99365.06;4981847;28;124446;-72
2022/09/22 01:34:23;;;;;;;3.43;2.60;;;12.30;75.20;;;12.69;50.59;99357.91;4990590;28;123433;-72
2022/09/22 01:37:46;;;;;;;4.90;2.50;;;12.50;75.60;;;12.62;50.35;99352.75;4986453;28;114395;-71
2022/09/22 01:41:01;;;;;;;4.63;3.00;;;12.30;75.70;;;12.54;50.63;99350.75;4976337;28;114085;-71
2022/09/22 01:43:30;;;;;;;5.97;2.77;;;12.20;76.00;;;12.48;50.95;99350.03;4981613;28;124487;-71
2022/09/22 01:46:01;;;;;;;3.30;2.50;;;12.10;76.20;;;12.44;51.35;99356.50;4971665;28;124699;-72
2022/09/22 01:48:31;;;;;;;4.00;3.13;;;12.10;76.70;;;12.43;51.62;99354.88;4980466;28;114861;-72
2022/09/22 01:51:27;;;;;;;5.90;2.90;;;12.00;77.00;;;12.43;51.37;99354.88;4988987;28;114916;-72
2022/09/22 01:54:06;;;;;;;5.07;3.03;;;12.00;77.40;;;12.42;51.75;99348.53;4986372;28;123950;-72
2022/09/22 01:56:33;;;;;;;5.80;3.13;;;12.00;77.50;;;12.41;52.01;99357.13;4980932;28;123682;-71
2022/09/22 01:59:05;;;;;;;6.17;3.30;;;12.10;77.90;;;12.42;51.88;99361.56;4991888;28;113499;-71
2022/09/22 02:01:44;;;;;;;5.40;3.07;;;12.00;78.10;;;12.43;52.07;99360.41;4989255;28;113843;-72
2022/09/22 02:04:28;;;;;;;7.60;3.80;;;12.00;78.40;;;12.41;52.05;99355.16;4987020;28;124165;-73
2022/09/22 02:07:07;;;;;;;6.23;3.57;;;12.50;79.20;;;12.41;52.38;99351.59;4985255;28;123943;-72
2022/09/22 02:09:37;;;;;;;6.50;3.27;;;12.00;79.00;;;12.37;52.54;99352.22;4974825;28;113675;-73
2022/09/22 02:12:04;;;;;;;7.87;4.23;;;12.00;79.20;;;12.37;52.25;99356.94;4979416;28;113629;-72
2022/09/22 02:14:31;;;;;;;4.83;3.10;;;11.90;79.20;;;12.34;52.56;99347.28;4979349;28;124643;-73
2022/09/22 02:16:59;;;;;;;7.00;3.90;;;13.00;80.40;;;12.33;52.52;99339.28;4989368;28;123510;-72
2022/09/22 02:19:36;;;;;;;7.00;3.20;;;11.90;79.60;;;12.33;52.84;99345.66;4982910;28;114276;-71
2022/09/22 02:22:04;;;;;;;9.17;4.23;;;12.00;79.90;;;12.31;53.04;99352.66;4987358;28;114325;-71
2022/09/22 02:24:36;;;;;;;6.33;4.50;;;11.90;80.00;;;12.29;52.52;99344.63;4974476;28;124531;-72
2022/09/22 02:27:26;;;;;;;11.37;5.47;;;11.90;80.20;;;12.26;52.56;99341.66;4987629;28;124515;-73
2022/09/22 02:30:13;;;;;;;17.10;7.90;;;11.80;80.20;;;12.22;52.93;99344.22;4965538;28;112472;-71
2022/09/22 02:32:45;;;;;;;15.57;7.77;;;11.80;80.30;;;12.20;52.82;99332.66;4986292;28;114251;-72
2022/09/22 02:35:13;;;;;;;19.03;10.27;;;11.80;80.30;;;12.19;52.73;99333.75;4986079;28;122882;-71
2022/09/22 02:38:13;;;;;;;31.27;9.80;;;11.80;80.30;;;12.16;52.59;99340.75;4984584;28;123916;-71
2022/09/22 02:41:01;;;;;;;18.77;8.53;;;11.80;80.50;;;12.16;52.83;99334.38;4977745;28;115492;-72
2022/09/22 02:43:35;;;;;;;21.53;8.67;;;11.70;80.40;;;12.14;52.80;99328.34;4976060;28;114871;-72
2022/09/22 02:46:21;;;;;;;18.57;8.87;;;11.70;80.50;;;12.11;52.64;99328.97;4972204;28;123741;-71
2022/09/22 02:49:16;;;;;;;21.20;8.30;;;11.70;80.60;;;12.08;52.90;99330.41;4975033;28;123921;-76
2022/09/22 02:51:46;;;;;;;19.83;8.03;;;11.70;80.90;;;12.04;53.33;99332.16;4987694;28;114125;-72
2022/09/22 02:54:16;;;;;;;17.60;8.03;;;11.60;80.80;;;12.03;52.86;99338.81;4967214;28;114790;-72
2022/09/22 02:57:01;;;;;;;16.67;7.63;;;11.60;80.90;;;12.03;53.19;99335.22;4970736;28;122828;-71
2022/09/22 02:59:27;;;;;;;16.70;7.37;;;11.60;81.20;;;12.01;53.07;99332.78;4991256;28;123737;-71
2022/09/22 03:01:54;;;;;;;14.60;6.67;;;11.60;81.30;;;12.01;53.25;99335.56;4986579;28;114408;-71
2022/09/22 03:04:21;;;;;;;11.67;5.60;;;11.60;81.40;;;12.00;53.21;99325.59;4990376;28;114144;-71
2022/09/22 03:06:48;;;;;;;16.00;6.13;;;11.60;81.40;;;12.01;53.53;99326.41;4986798;28;124674;-71
2022/09/22 03:09:16;;;;;;;7.87;4.93;;;11.60;82.20;;;12.00;53.53;99328.34;4987627;28;124007;-71
2022/09/22 03:11:43;;;;;;;9.50;4.40;;;11.60;81.60;;;12.01;53.48;99331.94;4987706;28;114362;-72
2022/09/22 03:14:10;;;;;;;12.73;4.77;;;11.60;81.70;;;11.99;53.72;99323.94;4980640;28;114186;-71
2022/09/22 03:16:36;;;;;;;10.50;4.20;;;11.50;81.60;;;12.01;53.54;99331.94;4981663;28;124705;-72
2022/09/22 03:19:03;;;;;;;6.47;3.83;;;11.50;81.60;;;11.99;53.08;99323.94;4986762;28;123694;-72
2022/09/22 03:21:30;;;;;;;8.47;3.47;;;11.50;81.70;;;11.98;53.30;99327.03;4979413;28;114066;-71
2022/09/22 03:23:56;;;;;;;6.63;4.40;;;11.60;81.80;;;11.97;53.35;99325.38;4975950;28;114433;-71
2022/09/22 03:26:23;;;;;;;6.73;3.60;;;11.50;81.70;;;11.98;52.99;99321.47;4986762;28;124135;-72
2022/09/22 03:28:49;;;;;;;5.40;3.77;;;11.50;81.70;;;11.95;53.01;99322.91;4987431;28;123575;-72
2022/09/22 03:31:16;;;;;;;3.73;2.60;;;11.50;81.70;;;11.92;53.32;99318.81;4986506;28;114669;-71
2022/09/22 03:33:43;;;;;;;6.50;3.27;;;11.50;81.70;;;11.90;53.09;99320.25;4985265;28;115032;-71
2022/09/22 03:36:09;;;;;;;5.60;3.30;;;11.50;81.80;;;11.89;53.47;99324.16;4984041;28;124052;-72
2022/09/22 03:38:35;;;;;;;6.40;2.83;;;11.50;81.80;;;11.87;53.08;99327.22;4989837;28;122984;-72
2022/09/22 03:41:02;;;;;;;3.30;2.47;;;11.40;81.70;;;11.86;53.23;99325.59;4990130;28;113454;-72
2022/09/22 03:43:29;;;;;;;4.20;3.03;;;11.50;81.70;;;11.83;53.25;99317.06;4987213;28;114020;-71
2022/09/22 03:45:59;;;;;;;4.23;2.70;;;11.60;82.50;;;11.79;53.30;99324.31;4987786;28;124289;-71
2022/09/22 03:48:28;;;;;;;4.73;2.67;;;11.40;81.50;;;11.73;53.08;99324.44;4989852;28;124077;-71
2022/09/22 03:50:56;;;;;;;5.13;3.70;;;11.40;81.50;;;11.70;53.04;99322.28;4986113;28;114119;-71
2022/09/22 03:53:23;;;;;;;5.30;2.90;;;11.30;81.40;;;11.69;53.32;99319.84;4989099;28;113909;-71
2022/09/22 03:55:50;;;;;;;5.20;3.07;;;11.30;81.50;;;11.67;53.01;99313.78;4986990;28;124032;-71
2022/09/22 03:58:19;;;;;;;5.73;3.33;;;11.30;81.60;;;11.66;52.97;99314.88;4973562;28;122753;-74
2022/09/22 04:00:48;;;;;;;5.23;3.03;;;11.20;81.60;;;11.65;53.16;99318.78;4989791;28;114638;-71
2022/09/22 04:03:15;;;;;;;3.83;2.80;;;11.20;81.60;;;11.63;53.17;99318.28;4990152;28;114391;-72
2022/09/22 04:05:49;;;;;;;7.17;2.90;;;11.20;81.70;;;11.63;53.23;99315.50;4967584;28;125126;-72
2022/09/22 04:08:16;;;;;;;6.30;2.30;;;11.20;81.80;;;11.60;53.03;99316.94;4968273;28;123575;-71
2022/09/22 04:10:44;;;;;;;4.40;2.30;;;11.20;81.80;;;11.59;53.01;99312.53;4968369;28;114315;-71
2022/09/22 04:13:12;;;;;;;5.67;3.10;;;11.20;81.80;;;11.59;53.50;99317.25;4950868;28;113994;-72
2022/09/22 04:15:39;;;;;;;2.90;2.60;;;11.10;81.70;;;11.57;53.20;99311.22;4965050;28;124242;-71
2022/09/22 04:18:06;;;;;;;3.10;2.50;;;11.10;81.80;;;11.55;53.32;99318.97;4958803;28;123788;-72
2022/09/22 04:20:33;;;;;;;4.07;2.70;;;11.10;81.90;;;11.53;53.30;99313.78;4950416;28;114571;-72
2022/09/22 04:22:59;;;;;;;4.10;2.73;;;11.20;82.10;;;11.53;53.61;99322.06;4945296;28;113990;-71
2022/09/22 04:25:26;;;;;;;3.93;2.40;;;11.10;82.20;;;11.52;53.60;99316.84;4959984;28;123811;-72
2022/09/22 04:27:52;;;;;;;4.40;2.70;;;11.10;82.40;;;11.51;54.02;99313.25;4965227;28;123662;-74
2022/09/22 04:30:19;;;;;;;3.93;2.70;;;12.10;83.40;;;11.52;54.00;99314.06;4962595;28;114172;-72
2022/09/22 04:32:45;;;;;;;5.13;2.90;;;12.10;83.60;;;11.48;53.57;99320.22;4965019;28;114099;-71
2022/09/22 04:35:11;;;;;;;4.03;2.47;;;11.00;82.70;;;11.47;53.96;99321.34;4959797;28;124080;-71
2022/09/22 04:37:38;;;;;;;3.77;2.90;;;11.00;82.90;;;11.46;54.23;99328.00;4970640;28;123922;-74
2022/09/22 04:40:05;;;;;;;5.73;3.10;;;11.10;83.10;;;11.46;54.08;99322.47;4979220;28;114122;-72
2022/09/22 04:42:32;;;;;;;5.13;3.17;;;11.00;83.20;;;11.45;54.07;99331.91;4983394;28;113711;-72
2022/09/22 04:45:00;;;;;;;3.43;2.80;;;11.00;83.30;;;11.43;53.98;99325.84;4986460;28;124352;-72
2022/09/22 04:47:29;;;;;;;3.80;2.63;;;11.00;83.40;;;11.41;54.26;99325.31;4982307;28;123833;-71
2022/09/22 04:49:55;;;;;;;6.70;2.83;;;11.20;83.70;;;11.41;54.43;99321.75;4981585;28;115468;-71
2022/09/22 04:52:22;;;;;;;3.43;2.60;;;10.90;83.50;;;11.37;54.65;99315.19;4979917;28;114507;-71
2022/09/22 04:54:48;;;;;;;4.13;2.83;;;10.90;83.60;;;11.35;54.42;99317.44;4973923;28;123141;-71
2022/09/22 04:57:15;;;;;;;5.07;3.03;;;10.90;83.70;;;11.33;54.89;99322.44;4978092;28;124537;-71
2022/09/22 04:59:41;;;;;;;8.50;3.50;;;10.90;83.80;;;11.30;54.55;99323.88;4979202;28;114431;-71
2022/09/22 05:02:08;;;;;;;6.00;3.10;;;10.90;84.00;;;11.28;54.56;99317.81;4986545;28;114782;-72
2022/09/22 05:04:35;;;;;;;4.50;3.03;;;10.80;84.00;;;11.25;54.97;99322.00;4958757;28;123486;-73
2022/09/22 05:07:01;;;;;;;7.23;3.30;;;10.80;84.10;;;11.25;54.96;99316.47;4978268;28;124029;-73
2022/09/22 05:09:28;;;;;;;4.23;2.97;;;10.80;84.20;;;11.26;55.13;99322.84;4977067;28;114733;-72
2022/09/22 05:11:57;;;;;;;4.80;3.30;;;10.80;84.30;;;11.24;54.69;99322.34;4970991;28;114906;-72
2022/09/22 05:14:24;;;;;;;5.80;2.60;;;10.80;84.30;;;11.22;54.90;99319.84;4975671;28;124080;-72
2022/09/22 05:16:50;;;;;;;9.80;3.23;;;10.70;84.40;;;11.21;54.95;99332.06;4979828;28;123136;-72
2022/09/22 05:19:17;;;;;;;3.37;2.57;;;10.50;84.20;;;11.19;54.70;99328.75;4972032;28;114779;-72
2022/09/22 05:21:43;;;;;;;5.40;3.03;;;12.20;85.90;;;11.20;54.57;99329.59;4969532;28;114219;-72
2022/09/22 05:24:10;;;;;;;4.63;3.20;;;10.70;84.40;;;11.17;54.62;99330.19;4973082;28;124087;-72
2022/09/22 05:26:36;;;;;;;4.67;3.40;;;10.70;84.40;;;11.18;55.24;99340.97;4970016;28;123625;-72
2022/09/22 05:29:05;;;;;;;4.77;3.40;;;10.70;85.00;;;11.21;55.74;99334.81;4976371;28;114310;-79
2022/09/22 05:31:31;;;;;;;5.83;3.57;;;11.90;87.60;;;11.26;56.02;99331.16;4971319;28;114104;-72
2022/09/22 05:33:58;;;;;;;5.00;3.43;;;11.50;87.10;;;11.31;56.02;99346.81;4974305;28;124084;-72
2022/09/22 05:36:24;;;;;;;9.50;3.90;;;10.80;86.50;;;11.36;56.41;99346.72;4970941;28;123921;-71
2022/09/22 05:38:51;;;;;;;3.90;2.97;;;10.80;87.60;;;11.38;56.52;99348.06;4974893;28;114021;-72
2022/09/22 05:41:17;;;;;;;5.60;3.10;;;10.80;86.80;;;11.38;55.96;99348.06;4978830;28;114137;-72
2022/09/22 05:43:44;;;;;;;6.93;3.70;;;10.80;86.70;;;11.42;56.24;99349.13;4981184;28;124637;-73
2022/09/22 05:46:10;;;;;;;7.57;4.07;;;10.80;86.80;;;11.47;55.49;99354.56;4977950;28;123850;-72
2022/09/22 05:48:37;;;;;;;5.60;2.70;;;10.90;86.70;;;11.48;55.89;99347.06;4972913;28;114247;-72
2022/09/22 05:51:03;;;;;;;7.07;3.60;;;10.90;86.60;;;11.52;55.40;99342.56;4985966;28;114273;-71
2022/09/22 05:53:30;;;;;;;5.77;3.50;;;11.20;87.00;;;11.57;55.47;99344.41;4975919;28;124234;-72
2022/09/22 05:55:58;;;;;;;7.07;3.40;;;11.00;86.60;;;11.60;55.65;99347.38;4970603;28;122851;-72
2022/09/22 05:58:25;;;;;;;6.73;3.47;;;11.00;86.40;;;11.64;55.09;99348.44;4968488;28;115274;-72
2022/09/22 06:00:56;;;;;;;3.90;3.17;;;11.10;86.30;;;11.66;55.30;99337.03;4969673;28;114856;-72
2022/09/22 06:03:24;;;;;;;5.27;3.33;;;11.10;86.20;;;11.69;55.36;99341.97;4987783;28;124730;-72
2022/09/22 06:05:50;;;;;;;8.60;4.40;;;11.10;86.10;;;11.72;54.71;99346.91;4957065;28;122879;-72
2022/09/22 06:08:18;;;;;;;8.57;3.87;;;11.10;85.90;;;11.74;55.18;99339.13;4971673;28;113381;-72
2022/09/22 06:10:47;;;;;;;7.33;3.33;;;11.20;86.00;;;11.80;54.58;99346.19;4983542;28;113960;-72
2022/09/22 06:13:14;;;;;;;5.00;3.50;;;11.20;86.00;;;11.89;54.69;99346.31;4981100;28;123094;-72
2022/09/22 06:15:44;;;;;;;8.00;3.33;;;11.30;85.90;;;11.97;54.58;99347.53;4983646;28;123694;-72
2022/09/22 06:18:12;;;;;;;5.33;3.60;;;11.40;85.80;;;12.04;54.30;99343.25;4985491;28;113371;-72
2022/09/22 06:20:39;;;;;;;5.80;3.40;;;11.70;85.80;;;12.11;54.02;99337.25;4982208;28;113945;-85
2022/09/22 06:23:07;;;;;;;5.20;3.23;;;11.50;85.40;;;12.18;54.27;99342.41;4975992;28;124664;-72
2022/09/22 06:25:34;;;;;;;7.43;3.93;;;11.50;85.10;;;12.25;53.70;99342.78;4981636;28;125409;-71
2022/09/22 06:28:04;;;;;;;7.27;4.17;;;11.60;85.10;;;12.32;53.77;99344.00;4978643;28;114517;-72
2022/09/22 06:30:35;;;;;;;7.50;4.23;;;11.70;84.90;;;12.38;53.63;99342.78;4973698;28;114181;-72
2022/09/22 06:33:02;;;;;;;8.77;4.97;;;11.80;84.70;;;12.41;53.17;99343.28;4979228;28;124027;-71
2022/09/22 06:35:35;;;;;;;6.70;4.10;;;11.80;84.50;;;12.46;53.07;99343.97;4982721;28;124522;-72
2022/09/22 06:38:03;;;;;;;4.97;3.40;;;11.80;84.40;;;12.49;53.30;99335.06;4982445;28;114141;-72
2022/09/22 06:40:37;;;;;;;5.43;3.50;;;11.90;84.30;;;12.54;53.00;99339.66;4976593;28;114430;-72
2022/09/22 06:43:09;;;;;;;7.40;3.60;;;11.90;84.10;;;12.61;52.53;99340.03;4980770;28;123508;-71
2022/09/22 06:45:41;;;;;;;6.40;3.50;;;12.00;84.00;;;12.71;52.85;99336.22;4971726;28;124156;-71
2022/09/22 06:48:11;;;;;;;4.73;2.90;;;12.00;83.80;;;12.79;52.16;99324.38;4968119;28;115225;-71
2022/09/22 06:50:39;;;;;;;8.10;3.50;;;12.10;83.70;;;12.87;52.01;99333.88;4967177;28;115202;-71
2022/09/22 06:53:12;;;;;;;6.40;3.40;;;12.20;83.60;;;12.95;52.09;99327.56;4967450;28;124106;-72
2022/09/22 06:55:41;;;;;;;5.10;3.03;;;12.30;83.30;;;13.01;51.62;99321.59;4967326;28;123879;-72
2022/09/22 06:58:09;;;;;;;4.90;3.00;;;12.30;82.90;;;13.07;51.34;99325.06;4966445;28;114250;-72
2022/09/22 07:00:36;;;;;;;5.50;3.17;;;12.40;82.90;;;13.13;51.41;99328.53;4969189;28;114542;-71
2022/09/22 07:03:19;;;;;;;6.20;3.10;;;12.40;82.60;;;13.19;51.06;99325.31;4969293;28;124017;-72
2022/09/22 07:06:02;;;;;;;6.87;3.13;;;12.50;82.50;;;13.24;50.96;99322.41;4973397;28;124113;-72
2022/09/22 07:08:31;;;;;;;7.17;4.00;;;12.60;82.20;;;13.30;50.84;99319.50;4975051;28;114006;-72
2022/09/22 07:11:06;;;;;;;5.03;3.10;;;12.60;82.00;;;13.35;50.73;99314.69;4968469;28;113799;-72
2022/09/22 07:13:38;;;;;;;5.13;3.13;;;13.20;82.30;;;13.40;50.74;99322.84;4973266;28;124522;-71
2022/09/22 07:16:11;;;;;;;5.23;3.80;;;12.70;81.60;;;13.45;50.34;99311.59;4976610;28;123482;-71
2022/09/22 07:18:48;;;;;;;3.83;2.77;;;12.80;81.60;;;13.52;50.30;99313.94;4985819;28;114374;-71
2022/09/22 07:21:19;;;;;;;8.70;3.40;;;12.80;81.30;;;13.57;50.11;99311.03;4985283;28;114355;-73
2022/09/22 07:23:48;;;;;;;4.90;3.10;;;12.90;81.30;;;13.65;50.13;99318.56;4983410;28;123826;-72
2022/09/22 07:26:18;;;;;;;7.00;3.97;;;13.00;81.30;;;13.75;50.03;99314.66;4987074;28;123714;-72
2022/09/22 07:28:49;;;;;;;12.13;3.97;;;13.00;81.20;;;13.83;49.90;99315.84;4984991;28;114333;-71
2022/09/22 07:31:16;;;;;;;5.47;3.63;;;13.10;81.20;;;13.88;50.30;99313.75;4965618;28;113115;-73
2022/09/22 07:33:45;;;;;;;7.80;4.13;;;13.10;81.20;;;13.95;49.98;99316.06;4977575;28;124799;-71
2022/09/22 07:36:17;;;;;;;12.20;4.60;;;13.40;81.30;;;14.00;49.88;99318.69;4956115;28;123116;-72
2022/09/22 07:38:50;;;;;;;15.47;5.10;;;13.20;81.10;;;14.04;49.76;99314.13;4983159;28;115785;-73
2022/09/22 07:41:21;;;;;;;9.47;4.77;;;13.30;81.10;;;14.04;49.90;99314.13;4987178;28;114979;-73
2022/09/22 07:43:51;;;;;;;8.30;4.90;;;13.30;81.20;;;14.09;50.03;99329.81;4984063;28;123987;-72
2022/09/22 07:46:18;;;;;;;10.63;4.63;;;13.30;81.20;;;14.13;50.10;99323.31;4983280;28;124282;-72
2022/09/22 07:48:46;;;;;;;15.50;5.50;;;13.40;81.30;;;14.18;49.90;99319.53;4985722;28;114072;-72
2022/09/22 07:51:21;;;;;;;14.80;5.23;;;13.40;81.20;;;14.22;50.15;99317.75;4967731;28;114118;-72
2022/09/22 07:54:07;;;;;;;12.00;5.03;;;13.60;81.60;;;14.29;49.73;99315.34;4966779;28;123771;-72
2022/09/22 07:56:39;;;;;;;8.03;4.10;;;13.50;81.30;;;14.36;49.70;99312.06;4981714;28;123964;-72
2022/09/22 07:59:09;;;;;;;8.50;4.53;;;13.60;81.10;;;14.42;49.57;99313.53;4987389;28;114210;-72
2022/09/22 08:01:43;;;;;;;18.80;5.57;;;13.70;81.00;;;14.50;49.24;99315.50;4981548;28;114033;-72
2022/09/22 08:04:15;;;;;;;6.70;4.40;;;13.70;80.80;;;14.53;49.07;99312.13;4999705;28;124520;-72
2022/09/22 08:06:44;;;;;;;6.67;4.50;;;13.80;80.70;;;14.55;49.00;99314.56;4981442;28;123966;-72
2022/09/22 08:09:12;;;;;;;8.70;4.70;;;13.80;80.50;;;14.58;49.06;99309.16;4985397;28;114642;-72
2022/09/22 08:11:39;;;;;;;7.03;4.70;;;13.80;80.30;;;14.61;49.13;99309.66;4979456;28;113946;-72
2022/09/22 08:14:10;;;;;;;5.77;3.40;;;13.90;80.30;;;14.65;49.09;99305.91;4981230;28;124189;-70
2022/09/22 08:16:39;;;;;;;7.83;4.20;;;13.90;80.30;;;14.73;48.92;99304.28;4978589;28;123583;-72
2022/09/22 08:19:11;;;;;;;14.33;4.30;;;14.00;80.30;;;14.78;48.78;99301.31;4980164;28;113384;-72
2022/09/22 08:21:43;;;;;;;12.07;5.33;;;14.00;80.00;;;14.78;48.43;99295.75;4998111;28;112992;-72
2022/09/22 08:24:12;;;;;;;12.73;4.73;;;14.10;79.90;;;14.79;48.90;99297.38;4980927;28;124153;-72
2022/09/22 08:26:42;;;;;;;6.73;4.33;;;14.10;79.80;;;14.82;48.74;99295.91;4982890;28;124298;-72
2022/09/22 08:29:10;;;;;;;9.17;5.10;;;14.10;79.70;;;14.88;48.63;99295.41;4984541;28;115200;-71
2022/09/22 08:31:40;;;;;;;10.37;4.70;;;14.20;79.80;;;14.92;48.50;99293.59;4982577;28;114025;-73
2022/09/22 08:34:08;;;;;;;5.30;3.47;;;14.20;79.60;;;14.95;48.36;99292.94;4984009;28;124535;-72
2022/09/22 08:36:35;;;;;;;7.57;4.17;;;14.20;79.40;;;15.00;48.28;99300.31;4985500;28;123907;-72
2022/09/22 08:39:03;;;;;;;12.93;4.47;;;14.30;79.50;;;15.06;48.10;99289.81;4984587;28;114335;-72
2022/09/22 08:41:55;;;;;;;10.33;5.37;;;14.30;79.10;;;15.09;48.00;99289.16;4982366;28;114112;-72
2022/09/22 08:44:36;;;;;;;6.53;4.20;;;14.40;79.00;;;15.11;48.14;99298.00;4984734;28;123899;-72
2022/09/22 08:47:03;;;;;;;9.70;4.83;;;14.40;78.90;;;15.15;48.11;99293.41;4973819;28;123855;-71
2022/09/22 08:52:54;;;;;;;6.20;3.63;;;14.50;78.40;;;15.14;47.69;99287.00;4988368;28;114372;-71
2022/09/22 08:55:25;;;;;;;7.47;4.07;;;14.50;78.30;;;15.17;47.57;99282.75;4984016;28;123965;-70
2022/09/22 08:58:25;;;;;;;7.10;4.80;;;14.50;78.20;;;15.15;47.71;99291.47;4982084;28;123572;-72
2022/09/22 09:01:38;;;;;;;6.87;4.50;;;14.50;78.00;;;15.13;47.49;99290.97;4971373;28;114538;-71
2022/09/22 09:04:58;;;;;;;8.20;3.23;;;14.50;77.90;;;15.15;47.72;99288.66;4965331;28;114142;-72
2022/09/22 09:07:40;;;;;;;7.23;3.30;;;14.50;77.90;;;15.17;47.48;99291.09;4977042;28;124035;-70
2022/09/22 09:10:31;;;;;;;4.40;3.20;;;14.50;77.70;;;15.19;47.45;99291.59;4984570;28;123948;-71
2022/09/22 09:13:03;;;;;;;6.37;3.40;;;14.60;77.70;;;15.27;47.54;99289.94;4980604;28;113577;-73
2022/09/22 09:15:50;;;;;;;5.23;3.70;;;14.70;77.90;;;15.33;47.42;99283.84;4986538;28;114249;-71
2022/09/22 09:18:26;;;;;;;5.90;3.57;;;14.70;77.70;;;15.35;47.24;99289.09;4970309;28;124105;-71
2022/09/22 09:20:58;;;;;;;5.70;3.80;;;14.70;77.40;;;15.36;47.20;99285.97;4982974;28;123430;-72
2022/09/22 09:23:38;;;;;;;4.27;3.13;;;14.70;77.40;;;15.43;47.14;99286.28;4977875;28;115098;-71
2022/09/22 09:26:05;;;;;;;5.20;3.03;;;14.80;77.30;;;15.49;47.08;99278.56;4973059;28;114037;-72
2022/09/22 09:28:41;;;;;;;4.07;3.20;;;14.80;77.30;;;15.57;46.83;99274.91;4978382;28;123707;-72
2022/09/22 09:31:36;;;;;;;4.83;3.20;;;14.90;77.30;;;15.64;47.03;99274.41;4970464;28;124325;-71
2022/09/22 09:34:27;;;;;;;7.30;3.40;;;15.00;77.40;;;15.72;46.65;99265.22;4970397;28;114330;-72
2022/09/22 09:37:07;;;;;;;4.40;2.47;;;15.10;77.10;;;15.78;45.91;99265.84;4973930;28;114330;-71
2022/09/22 09:39:39;;;;;;;4.20;1.90;;;15.10;75.70;;;15.81;45.81;99263.22;4968250;28;124069;-71
2022/09/22 09:42:30;;;;;;;3.40;2.07;;;15.20;75.40;;;15.85;45.61;99264.19;4980689;28;123995;-71
2022/09/22 09:45:01;;;;;;;2.33;1.40;;;15.20;74.80;;;15.90;45.14;99272.34;4970074;28;114406;-71
2022/09/22 09:47:55;;;;;;;3.30;2.00;;;15.30;74.40;;;15.96;44.83;99274.91;4969509;28;114356;-70
2022/09/22 09:50:23;;;;;;;2.73;1.67;;;15.30;74.10;;;16.02;44.61;99262.44;4985447;28;123803;-71
2022/09/22 09:52:50;;;;;;;2.63;1.90;;;15.40;73.60;;;16.07;44.23;99271.44;4967362;28;124082;-71
2022/09/22 09:55:24;;;;;;;3.00;1.70;;;15.50;73.00;;;16.13;43.90;99258.09;4969602;28;114312;-71
2022/09/22 09:58:10;;;;;;;3.27;1.73;;;15.50;72.50;;;16.17;43.50;99253.47;4969250;28;114224;-71
2022/09/22 10:00:58;;;;;;;3.80;2.47;;;15.60;71.80;;;16.21;43.58;99253.63;4974697;28;124622;-71
2022/09/22 10:03:35;;;;;;;5.40;2.13;;;15.60;71.90;;;16.27;43.97;99247.50;4968349;28;124361;-72
2022/09/22 10:06:09;;;;;;;2.80;1.90;;;15.70;72.20;;;16.37;44.12;99253.84;4974513;28;114404;-70
2022/09/22 10:08:50;;;;;;;4.53;2.37;;;15.80;72.50;;;16.46;44.04;99249.81;4976815;28;113878;-71
2022/09/22 10:11:30;;;;;;;4.00;2.77;;;15.90;72.80;;;16.54;44.09;99246.13;4985493;28;124883;-71
2022/09/22 10:13:57;;;;;;;3.37;2.47;;;15.90;72.70;;;16.62;44.22;99241.63;4973863;28;124127;-71
2022/09/22 10:16:27;;;;;;;8.07;2.77;;;16.00;72.80;;;16.71;43.92;99238.75;4974410;28;114998;-70
2022/09/22 10:19:19;;;;;;;2.13;1.73;;;16.10;72.80;;;16.81;44.10;99243.13;4980682;28;114922;-70
2022/09/22 10:21:46;;;;;;;2.73;2.00;;;16.20;72.80;;;16.91;43.81;99237.13;4977035;28;125148;-71
2022/09/22 10:24:30;;;;;;;2.30;1.93;;;16.30;72.70;;;17.01;43.88;99236.72;4983646;28;123655;-71
2022/09/22 10:26:57;;;;;;;5.97;2.73;;;16.40;72.60;;;17.12;43.48;99231.50;4976096;28;114127;-71
2022/09/22 10:29:26;;;;;;;3.40;2.17;;;16.50;72.40;;;17.18;42.93;99230.91;4968527;28;114240;-71
2022/09/22 10:32:16;;;;;;;2.70;1.90;;;16.50;71.40;;;17.25;43.23;99224.78;4968252;28;124402;-71
2022/09/22 10:34:49;;;;;;;3.40;2.47;;;16.60;71.50;;;17.34;42.52;99221.88;4966958;28;124249;-71
2022/09/22 10:37:24;;;;;;;2.47;1.67;;;16.70;70.90;;;17.44;42.52;99232.59;4986733;28;114211;-72
2022/09/22 10:40:00;;;;;;;5.90;2.23;;;16.80;70.80;;;17.53;41.63;99222.13;4972043;28;113828;-71
2022/09/22 10:42:44;;;;;;;3.73;1.77;;;16.90;69.40;;;17.61;41.35;99217.59;4970624;28;124201;-71